createdAt,value
2023-04-27T00:02:46.272Z,35.10
2023-04-27T00:05:36.344Z,35.10
2023-04-27T00:08:24.667Z,35.10
2023-04-27T00:11:12.908Z,35.10
2023-04-27T00:14:02.583Z,35.10
2023-04-27T00:16:50.908Z,35.10
2023-04-27T00:19:39.740Z,35.00
2023-04-27T00:22:28.233Z,35.10
2023-04-27T00:25:16.509Z,35.10
2023-04-27T00:28:05.370Z,35.10
2023-04-27T00:30:55.256Z,35.10
2023-04-27T00:33:43.515Z,35.10
2023-04-27T00:36:32.028Z,35.10
2023-04-27T00:39:20.324Z,35.10
2023-04-27T00:42:11.614Z,35.10
2023-04-27T00:44:59.873Z,35.40
2023-04-27T00:47:49.814Z,35.60
2023-04-27T00:50:38.890Z,35.60
2023-04-27T00:53:27.182Z,35.50
2023-04-27T00:56:15.444Z,35.50
2023-04-27T00:59:03.937Z,35.50
2023-04-27T01:01:53.535Z,35.50
2023-04-27T01:04:43.744Z,35.40
2023-04-27T01:07:32.148Z,35.50
2023-04-27T01:10:20.815Z,35.50
2023-04-27T01:13:09.255Z,35.50
2023-04-27T01:15:57.577Z,35.50
2023-04-27T01:18:47.036Z,35.50
2023-04-27T01:21:36.834Z,35.50
2023-04-27T01:24:26.835Z,35.70
2023-04-27T01:27:15.310Z,35.80
2023-04-27T01:30:03.752Z,35.80
2023-04-27T01:32:52.095Z,36.00
2023-04-27T01:35:40.422Z,36.10
2023-04-27T01:38:28.843Z,36.10
2023-04-27T01:41:21.692Z,36.00
2023-04-27T01:44:10.070Z,36.00
2023-04-27T01:46:58.419Z,35.90
2023-04-27T01:49:46.762Z,35.90
2023-04-27T01:52:35.108Z,35.80
2023-04-27T01:55:23.576Z,35.80
2023-04-27T01:58:13.407Z,35.80
2023-04-27T02:01:01.861Z,35.90
2023-04-27T02:03:50.336Z,35.90
2023-04-27T02:06:39.027Z,36.00
2023-04-27T02:09:27.305Z,36.00
2023-04-27T02:12:15.886Z,36.10
2023-04-27T02:15:06.670Z,36.10
2023-04-27T02:17:55.057Z,36.20
2023-04-27T02:20:43.520Z,36.40
2023-04-27T02:23:31.848Z,36.50
2023-04-27T02:26:21.018Z,36.40
2023-04-27T02:29:09.494Z,36.30
2023-04-27T02:31:59.696Z,36.20
2023-04-27T02:34:48.668Z,36.20
2023-04-27T02:37:37.346Z,36.20
2023-04-27T02:40:25.727Z,36.10
2023-04-27T02:43:14.054Z,36.20
2023-04-27T02:46:04.368Z,36.10
2023-04-27T02:48:54.316Z,36.20
2023-04-27T02:51:42.679Z,36.20
2023-04-27T02:54:31.143Z,36.30
2023-04-27T02:57:19.463Z,36.30
2023-04-27T03:00:09.537Z,36.50
2023-04-27T03:02:58.229Z,36.80
2023-04-27T03:05:48.038Z,36.70
2023-04-27T03:08:36.288Z,36.70
2023-04-27T03:11:24.702Z,36.70
2023-04-27T03:14:14.035Z,36.60
2023-04-27T03:17:03.281Z,36.50
2023-04-27T03:19:51.793Z,36.50
2023-04-27T03:22:41.461Z,36.40
2023-04-27T03:25:29.922Z,36.40
2023-04-27T03:28:18.292Z,36.40
2023-04-27T03:31:07.606Z,36.30
2023-04-27T03:33:55.902Z,36.20
2023-04-27T03:36:44.148Z,36.20
2023-04-27T03:39:33.805Z,36.20
2023-04-27T03:42:22.349Z,36.30
2023-04-27T03:45:12.528Z,36.40
2023-04-27T03:48:01.236Z,36.80
2023-04-27T03:50:50.231Z,36.80
2023-04-27T03:53:38.641Z,36.90
2023-04-27T03:56:28.325Z,37.00
2023-04-27T03:59:16.768Z,36.80
2023-04-27T04:02:05.973Z,36.60
2023-04-27T04:04:54.504Z,36.50
2023-04-27T04:07:43.747Z,36.30
2023-04-27T04:10:32.090Z,36.20
2023-04-27T04:13:21.898Z,36.20
2023-04-27T04:16:11.327Z,36.10
2023-04-27T04:18:59.713Z,36.10
2023-04-27T04:21:48.017Z,36.00
2023-04-27T04:24:37.964Z,36.00
2023-04-27T04:27:28.996Z,36.00
2023-04-27T04:30:19.758Z,35.90
2023-04-27T04:33:08.827Z,35.80
2023-04-27T04:35:57.608Z,36.10
2023-04-27T04:38:46.010Z,36.60
2023-04-27T04:41:34.559Z,36.70
2023-04-27T04:44:22.916Z,36.30
2023-04-27T04:47:13.328Z,36.10
2023-04-27T04:50:02.237Z,36.00
2023-04-27T04:52:50.747Z,35.90
2023-04-27T04:55:38.988Z,35.80
2023-04-27T04:58:27.329Z,35.70
2023-04-27T05:01:15.716Z,35.70
2023-04-27T05:04:05.920Z,35.60
2023-04-27T05:06:54.226Z,35.60
2023-04-27T05:09:42.496Z,35.50
2023-04-27T05:12:31.050Z,35.60
2023-04-27T05:15:19.486Z,35.60
2023-04-27T05:18:07.990Z,35.50
2023-04-27T05:20:57.908Z,35.50
2023-04-27T05:23:46.201Z,35.40
2023-04-27T05:26:34.653Z,35.50
2023-04-27T05:29:23.280Z,35.40
2023-04-27T05:32:11.919Z,35.30
2023-04-27T05:35:00.271Z,35.20
2023-04-27T05:37:49.883Z,35.20
2023-04-27T05:40:38.128Z,35.10
2023-04-27T05:43:27.171Z,35.60
2023-04-27T05:46:16.507Z,35.40
2023-04-27T05:49:04.920Z,35.40
2023-04-27T05:51:53.700Z,36.20
2023-04-27T05:54:47.858Z,36.00
2023-04-27T05:57:36.604Z,35.70
2023-04-27T06:00:25.582Z,35.40
2023-04-27T06:03:14.484Z,35.20
2023-04-27T06:06:03.211Z,35.00
2023-04-27T06:08:51.588Z,34.80
2023-04-27T06:11:41.274Z,34.70
2023-04-27T06:14:30.162Z,34.50
2023-04-27T06:17:18.509Z,34.20
2023-04-27T06:20:08.159Z,33.70
2023-04-27T06:22:58.015Z,33.10
2023-04-27T06:25:46.361Z,33.00
2023-04-27T06:28:36.450Z,32.70
2023-04-27T06:31:24.883Z,32.70
2023-04-27T06:34:14.355Z,32.10
2023-04-27T06:37:02.738Z,31.90
2023-04-27T06:39:51.423Z,31.30
2023-04-27T06:42:39.605Z,30.50
2023-04-27T06:45:29.496Z,29.40
2023-04-27T06:48:18.134Z,28.60
2023-04-27T06:51:06.881Z,27.90
2023-04-27T06:53:57.371Z,27.90
2023-04-27T06:56:45.885Z,27.40
2023-04-27T06:59:34.144Z,27.80
2023-04-27T07:02:25.597Z,27.80
2023-04-27T07:05:14.025Z,28.00
2023-04-27T07:08:06.011Z,28.00
2023-04-27T07:10:56.239Z,28.40
2023-04-27T07:13:44.616Z,28.30
2023-04-27T07:16:33.189Z,28.70
2023-04-27T07:19:22.844Z,28.80
2023-04-27T07:22:11.834Z,29.00
2023-04-27T07:25:00.221Z,29.00
2023-04-27T07:27:48.388Z,28.40
2023-04-27T07:30:37.046Z,27.90
2023-04-27T07:33:25.369Z,27.80
2023-04-27T07:36:15.118Z,27.90
2023-04-27T07:39:05.195Z,28.10
2023-04-27T07:41:53.372Z,28.00
2023-04-27T07:44:42.601Z,27.80
2023-04-27T07:47:30.852Z,27.80
2023-04-27T07:50:24.458Z,27.90
2023-04-27T07:53:14.112Z,27.90
2023-04-27T07:56:03.074Z,28.00
2023-04-27T07:58:52.172Z,28.10
2023-04-27T08:01:40.461Z,28.30
2023-04-27T08:04:29.012Z,29.10
2023-04-27T08:07:17.960Z,29.40
2023-04-27T08:10:09.334Z,29.70
2023-04-27T08:12:57.574Z,29.70
2023-04-27T08:15:45.840Z,29.70
2023-04-27T08:18:34.550Z,29.60
2023-04-27T08:21:22.783Z,29.60
2023-04-27T08:24:11.105Z,29.60
2023-04-27T08:27:01.068Z,29.70
2023-04-27T08:29:50.110Z,29.70
2023-04-27T08:32:38.392Z,29.70
2023-04-27T08:35:26.826Z,29.70
2023-04-27T08:38:15.135Z,29.80
2023-04-27T08:41:18.083Z,29.80
2023-04-27T08:44:10.931Z,29.70
2023-04-27T08:46:59.246Z,29.70
2023-04-27T08:49:47.483Z,29.70
2023-04-27T08:52:38.266Z,30.00
2023-04-27T08:55:26.916Z,29.90
2023-04-27T08:58:15.238Z,29.90
2023-04-27T09:01:07.123Z,29.90
2023-04-27T09:03:58.363Z,30.10
2023-04-27T09:06:46.962Z,30.20
2023-04-27T09:09:35.838Z,30.50
2023-04-27T09:12:24.127Z,30.40
2023-04-27T09:15:12.611Z,29.80
2023-04-27T09:18:02.409Z,29.10
2023-04-27T09:20:52.816Z,28.10
2023-04-27T09:23:44.492Z,27.70
2023-04-27T09:26:32.771Z,27.50
2023-04-27T09:29:21.368Z,27.60
2023-04-27T09:32:17.657Z,27.50
2023-04-27T09:35:22.132Z,27.70
2023-04-27T09:38:10.577Z,27.90
2023-04-27T09:40:59.056Z,27.90
2023-04-27T09:43:50.482Z,27.80
2023-04-27T09:46:39.155Z,27.70
2023-04-27T09:49:29.177Z,27.70
2023-04-27T09:52:18.805Z,27.50
2023-04-27T09:55:11.566Z,27.10
2023-04-27T09:58:14.570Z,27.00
2023-04-27T10:01:10.939Z,26.70
2023-04-27T10:04:13.332Z,26.40
2023-04-27T10:07:03.010Z,25.90
2023-04-27T10:09:52.656Z,25.30
2023-04-27T10:12:41.353Z,24.80
2023-04-27T10:15:30.971Z,24.90
2023-04-27T10:18:28.828Z,24.60
2023-04-27T10:21:17.174Z,24.00
2023-04-27T10:24:09.741Z,24.30
2023-04-27T10:27:05.769Z,24.30
2023-04-27T10:29:54.319Z,24.10
2023-04-27T10:32:52.697Z,24.10
2023-04-27T10:35:42.849Z,23.90
2023-04-27T10:38:32.735Z,24.20
2023-04-27T10:41:21.017Z,24.20
2023-04-27T10:44:18.255Z,24.20
2023-04-27T10:47:15.621Z,23.60
2023-04-27T10:50:05.810Z,23.10
2023-04-27T10:52:54.279Z,22.90
2023-04-27T10:55:42.731Z,22.50
2023-04-27T10:58:44.860Z,22.20
2023-04-27T11:01:38.819Z,21.90
2023-04-27T11:04:38.527Z,21.70
2023-04-27T11:07:28.421Z,21.60
2023-04-27T11:10:17.948Z,21.70
2023-04-27T11:13:11.381Z,22.00
2023-04-27T11:16:01.023Z,22.30
2023-04-27T11:18:50.785Z,22.40
2023-04-27T11:21:39.232Z,22.60
2023-04-27T11:24:27.537Z,22.80
2023-04-27T11:27:15.968Z,22.90
2023-04-27T11:30:04.715Z,22.80
2023-04-27T11:32:53.833Z,23.00
2023-04-27T11:35:43.562Z,23.10
2023-04-27T11:38:36.482Z,23.30
2023-04-27T11:41:24.711Z,23.50
2023-04-27T11:44:13.505Z,23.60
2023-04-27T11:47:02.325Z,23.90
2023-04-27T11:49:51.882Z,24.20
2023-04-27T11:52:41.680Z,24.30
2023-04-27T11:55:29.997Z,24.40
2023-04-27T11:58:18.935Z,24.30
2023-04-27T12:01:07.778Z,24.60
2023-04-27T12:03:56.368Z,24.40
2023-04-27T12:06:44.980Z,23.70
2023-04-27T12:09:34.577Z,23.90
2023-04-27T12:12:23.084Z,24.10
2023-04-27T12:15:12.252Z,23.90
2023-04-27T12:18:00.664Z,23.80
2023-04-27T12:20:48.971Z,23.90
2023-04-27T12:23:37.478Z,24.00
2023-04-27T12:26:27.095Z,24.10
2023-04-27T12:29:15.382Z,24.30
2023-04-27T12:32:03.716Z,24.40
2023-04-27T12:34:52.418Z,24.50
2023-04-27T12:37:40.929Z,24.50
2023-04-27T12:40:29.151Z,24.50
2023-04-27T12:43:18.847Z,24.50
2023-04-27T12:46:07.181Z,24.50
2023-04-27T12:48:57.064Z,24.50
2023-04-27T12:51:47.179Z,24.50
2023-04-27T12:54:36.516Z,24.50
2023-04-27T12:57:24.967Z,24.40
2023-04-27T13:00:15.634Z,24.50
2023-04-27T13:03:04.773Z,24.40
2023-04-27T13:05:53.289Z,24.10
2023-04-27T13:08:42.523Z,24.10
2023-04-27T13:11:31.030Z,24.10
2023-04-27T13:14:19.265Z,24.10
2023-04-27T13:17:08.889Z,24.20
2023-04-27T13:19:57.141Z,24.10
2023-04-27T13:22:45.836Z,24.10
2023-04-27T13:25:34.355Z,23.90
2023-04-27T13:28:22.561Z,23.60
2023-04-27T13:31:11.277Z,23.70
2023-04-27T13:34:01.283Z,23.70
2023-04-27T13:36:49.749Z,23.50
2023-04-27T13:39:38.367Z,23.50
2023-04-27T13:42:29.705Z,23.40
2023-04-27T13:45:18.034Z,23.00
2023-04-27T13:48:07.165Z,22.60
2023-04-27T13:50:57.070Z,22.50
2023-04-27T13:53:45.512Z,22.80
2023-04-27T13:56:33.716Z,22.90
2023-04-27T13:59:21.953Z,22.90
2023-04-27T14:02:10.629Z,22.80
2023-04-27T14:04:58.996Z,22.60
2023-04-27T14:07:48.641Z,22.70
2023-04-27T14:10:37.820Z,22.70
2023-04-27T14:13:26.106Z,22.70
2023-04-27T14:16:14.506Z,22.80
2023-04-27T14:19:02.804Z,23.00
2023-04-27T14:21:51.716Z,23.20
2023-04-27T14:24:41.493Z,23.50
2023-04-27T14:27:29.873Z,23.70
2023-04-27T14:30:18.193Z,23.80
2023-04-27T14:33:06.891Z,23.90
2023-04-27T14:35:56.153Z,23.90
2023-04-27T14:38:44.409Z,24.00
2023-04-27T14:41:34.114Z,24.10
2023-04-27T14:44:22.462Z,24.20
2023-04-27T14:47:10.866Z,24.40
2023-04-27T14:49:59.207Z,24.50
2023-04-27T14:52:47.447Z,24.50
2023-04-27T14:55:35.906Z,24.60
2023-04-27T14:58:25.727Z,24.70
2023-04-27T15:01:14.078Z,24.70
2023-04-27T15:04:02.578Z,24.70
2023-04-27T15:06:51.015Z,24.80
2023-04-27T15:09:39.309Z,24.80
2023-04-27T15:12:27.602Z,24.90
2023-04-27T15:15:17.744Z,24.90
2023-04-27T15:18:06.549Z,24.90
2023-04-27T15:20:55.166Z,25.00
2023-04-27T15:23:43.484Z,25.10
2023-04-27T15:26:31.729Z,25.20
2023-04-27T15:29:20.073Z,25.20
2023-04-27T15:32:09.611Z,25.30
2023-04-27T15:34:58.703Z,25.40
2023-04-27T15:37:46.898Z,25.40
2023-04-27T15:40:35.636Z,25.50
2023-04-27T15:43:23.844Z,25.50
2023-04-27T15:46:12.364Z,25.60
2023-04-27T15:49:01.992Z,25.70
2023-04-27T15:51:51.310Z,25.70
2023-04-27T15:54:39.562Z,25.80
2023-04-27T15:57:27.920Z,25.80
2023-04-27T16:00:18.004Z,25.90
2023-04-27T16:03:10.823Z,25.90
2023-04-27T16:06:00.881Z,26.00
2023-04-27T16:08:49.434Z,26.00
2023-04-27T16:11:37.736Z,26.00
2023-04-27T16:14:26.193Z,26.10
2023-04-27T16:17:14.389Z,26.10
2023-04-27T16:20:03.726Z,26.10
2023-04-27T16:22:53.322Z,26.00
2023-04-27T16:25:41.613Z,26.00
2023-04-27T16:28:30.292Z,26.10
2023-04-27T16:31:18.560Z,26.10
2023-04-27T16:34:06.968Z,26.10
2023-04-27T16:36:55.507Z,26.20
2023-04-27T16:39:45.214Z,26.30
2023-04-27T16:42:33.840Z,26.20
2023-04-27T16:45:22.236Z,26.20
2023-04-27T16:48:12.510Z,26.30
2023-04-27T16:51:00.981Z,26.20
2023-04-27T16:53:50.734Z,26.20
2023-04-27T16:56:40.557Z,26.20
2023-04-27T16:59:28.734Z,26.10
2023-04-27T17:02:23.911Z,26.10
2023-04-27T17:05:13.860Z,26.10
2023-04-27T17:08:05.128Z,26.20
2023-04-27T17:10:54.420Z,26.20
2023-04-27T17:13:44.060Z,26.20
2023-04-27T17:16:32.556Z,26.20
2023-04-27T17:19:21.068Z,26.20
2023-04-27T17:22:13.211Z,26.30
2023-04-27T17:25:01.447Z,26.40
2023-04-27T17:27:49.793Z,26.40
2023-04-27T17:30:40.066Z,26.40
2023-04-27T17:33:28.262Z,26.40
2023-04-27T17:36:16.600Z,26.50
2023-04-27T17:39:05.538Z,26.40
2023-04-27T17:41:54.157Z,26.50
2023-04-27T17:44:42.527Z,26.50
2023-04-27T17:47:33.803Z,26.50
2023-04-27T17:50:22.032Z,26.50
2023-04-27T17:53:10.660Z,26.50
2023-04-27T17:55:59.148Z,26.50
2023-04-27T17:58:47.424Z,26.60
2023-04-27T18:01:35.709Z,26.70
2023-04-27T18:04:25.582Z,26.70
2023-04-27T18:07:13.770Z,26.80
2023-04-27T18:10:02.030Z,26.90
2023-04-27T18:12:50.214Z,26.90
2023-04-27T18:15:38.478Z,27.10
2023-04-27T18:18:27.002Z,27.30
2023-04-27T18:21:16.634Z,27.60
2023-04-27T18:24:06.129Z,27.80
2023-04-27T18:26:54.376Z,28.40
2023-04-27T18:29:42.670Z,28.50
2023-04-27T18:32:31.258Z,28.60
2023-04-27T18:35:19.604Z,28.70
2023-04-27T18:38:09.196Z,28.80
2023-04-27T18:40:58.537Z,28.80
2023-04-27T18:43:46.758Z,28.60
2023-04-27T18:46:35.183Z,28.00
2023-04-27T18:49:23.436Z,27.60
2023-04-27T18:52:11.743Z,27.60
2023-04-27T18:55:01.440Z,27.70
2023-04-27T18:57:49.732Z,27.80
2023-04-27T19:00:38.822Z,27.80
2023-04-27T19:03:27.608Z,28.00
2023-04-27T19:06:16.641Z,28.10
2023-04-27T19:09:05.551Z,28.30
2023-04-27T19:12:02.737Z,28.40
2023-04-27T19:14:52.658Z,28.60
2023-04-27T19:17:41.460Z,28.60
2023-04-27T19:20:29.785Z,28.70
2023-04-27T19:23:19.292Z,28.80
2023-04-27T19:26:13.037Z,28.90
2023-04-27T19:29:03.902Z,29.00
2023-04-27T19:31:52.281Z,29.10
2023-04-27T19:34:40.633Z,29.10
2023-04-27T19:37:29.631Z,29.00
2023-04-27T19:40:18.285Z,28.90
2023-04-27T19:43:07.197Z,28.90
2023-04-27T19:45:56.952Z,28.90
2023-04-27T19:48:45.240Z,28.90
2023-04-27T19:51:33.497Z,28.80
2023-04-27T19:54:21.803Z,28.70
2023-04-27T19:57:10.146Z,28.60
2023-04-27T19:59:58.307Z,28.60
2023-04-27T20:02:48.051Z,28.60
2023-04-27T20:05:37.694Z,28.60
2023-04-27T20:08:26.299Z,28.60
2023-04-27T20:11:14.557Z,28.60
2023-04-27T20:14:02.919Z,28.70
2023-04-27T20:16:51.253Z,28.70
2023-04-27T20:19:42.660Z,28.80
2023-04-27T20:22:31.556Z,28.80
2023-04-27T20:25:20.347Z,29.00
2023-04-27T20:28:08.540Z,29.20
2023-04-27T20:30:56.909Z,29.20
2023-04-27T20:33:45.267Z,29.30
2023-04-27T20:36:35.024Z,29.30
2023-04-27T20:39:24.336Z,29.30
2023-04-27T20:42:13.082Z,29.30
2023-04-27T20:45:02.049Z,29.40
2023-04-27T20:47:50.528Z,29.40
2023-04-27T20:50:39.372Z,29.40
2023-04-27T20:53:29.096Z,29.40
2023-04-27T20:56:17.486Z,29.50
2023-04-27T20:59:07.816Z,29.50
2023-04-27T21:01:56.527Z,29.50
2023-04-27T21:04:45.118Z,29.50
2023-04-27T21:07:33.597Z,29.60
2023-04-27T21:10:23.545Z,29.60
2023-04-27T21:13:11.801Z,29.70
2023-04-27T21:16:01.004Z,29.70
2023-04-27T21:18:49.257Z,29.70
2023-04-27T21:21:37.572Z,29.70
2023-04-27T21:24:25.821Z,29.70
2023-04-27T21:27:15.554Z,29.80
2023-04-27T21:30:03.895Z,29.80
2023-04-27T21:32:52.324Z,29.90
2023-04-27T21:35:40.781Z,29.90
2023-04-27T21:38:29.032Z,29.90
2023-04-27T21:41:17.592Z,30.00
2023-04-27T21:44:10.225Z,30.00
2023-04-27T21:46:58.514Z,30.10
2023-04-27T21:49:46.750Z,30.10
2023-04-27T21:52:34.988Z,30.10
2023-04-27T21:55:23.585Z,30.20
2023-04-27T21:58:13.120Z,30.20
2023-04-27T22:01:02.882Z,30.30
2023-04-27T22:03:52.766Z,30.30
2023-04-27T22:06:41.290Z,30.30
2023-04-27T22:09:29.834Z,30.40
2023-04-27T22:12:18.182Z,30.40
2023-04-27T22:15:07.437Z,30.50
2023-04-27T22:17:57.101Z,30.50
2023-04-27T22:20:46.163Z,30.60
2023-04-27T22:23:34.535Z,30.60
2023-04-27T22:26:22.878Z,30.70
2023-04-27T22:29:11.142Z,30.70
2023-04-27T22:31:59.754Z,30.70
2023-04-27T22:34:49.378Z,30.70
2023-04-27T22:37:38.023Z,30.70
2023-04-27T22:40:26.439Z,30.80
2023-04-27T22:43:14.849Z,30.80
2023-04-27T22:46:03.055Z,30.80
2023-04-27T22:48:52.740Z,30.90
2023-04-27T22:51:42.459Z,30.90
2023-04-27T22:54:31.265Z,31.00
2023-04-27T22:57:19.796Z,31.10
2023-04-27T23:00:11.616Z,31.20
2023-04-27T23:03:00.408Z,31.20
2023-04-27T23:05:49.144Z,31.30
2023-04-27T23:08:43.050Z,31.40
2023-04-27T23:11:32.449Z,31.40
2023-04-27T23:14:21.157Z,31.50
2023-04-27T23:17:10.318Z,31.70
2023-04-27T23:19:59.164Z,31.70
2023-04-27T23:22:47.549Z,31.70
2023-04-27T23:25:37.158Z,31.80
2023-04-27T23:28:25.427Z,31.80
2023-04-27T23:31:13.820Z,31.80
2023-04-27T23:34:02.173Z,31.90
2023-04-27T23:36:50.562Z,31.90
2023-04-27T23:39:38.876Z,31.80
2023-04-27T23:42:28.566Z,31.80
2023-04-27T23:45:16.978Z,31.80
2023-04-27T23:48:05.767Z,31.80
2023-04-27T23:51:01.132Z,31.80
2023-04-27T23:53:49.297Z,31.80
2023-04-27T23:56:37.745Z,31.80
2023-04-27T23:59:27.332Z,31.80
